Time;durP1;ratioP1;P1;durP2;ratioP2;P2;SDS_P1;SDS_P2;PMS_P1;PMS_P2;Temp;Humidity;BMP_temperature;BMP_pressure;BME280_temperature;BME280_humidity;BME280_pressure;Samples;Min_cycle;Max_cycle;Signal;HPM_P1;HPM_P2
2021/07/06 00:00:41;;;;;;;;;;;;;;;15.85;87.05;98606.38;5034753;28;19988;-63
2021/07/06 00:03:06;;;;;;;;;;;;;;;15.87;87.20;98606.88;5035336;28;19928;-63
2021/07/06 00:05:32;;;;;;;;;;;;;;;15.84;87.14;98603.97;5034943;28;19917;-63
2021/07/06 00:07:57;;;;;;;;;;;;;;;15.77;87.43;98598.09;5034220;28;19913;-62
2021/07/06 00:10:23;;;;;;;;;;;;;;;15.79;87.44;98595.91;5035050;28;20004;-62
2021/07/06 00:12:48;;;;;;;;;;;;;;;15.78;87.31;98597.03;5035149;28;19913;-62
2021/07/06 00:15:14;;;;;;;;;;;;;;;15.71;87.13;98598.19;5034411;28;19913;-62
2021/07/06 00:17:40;;;;;;;;;;;;;;;15.70;87.51;98591.19;5035245;28;19940;-62
2021/07/06 00:20:06;;;;;;;;;;;;;;;15.69;87.43;98589.56;5033499;28;19936;-62
2021/07/06 00:22:32;;;;;;;;;;;;;;;15.70;87.36;98587.66;5033890;28;19963;-60
2021/07/06 00:24:57;;;;;;;;;;;;;;;15.61;87.46;98584.78;5034874;28;19909;-61
2021/07/06 00:27:22;;;;;;;;;;;;;;;15.51;87.69;98580.31;5034024;28;19988;-61
2021/07/06 00:29:47;;;;;;;;;;;;;;;15.47;87.86;98581.19;5033535;28;20007;-61
2021/07/06 00:32:13;;;;;;;;;;;;;;;15.35;88.36;98586.19;5034140;28;19917;-61
2021/07/06 00:34:38;;;;;;;;;;;;;;;15.23;88.87;98576.63;5034973;28;19913;-61
2021/07/06 00:37:03;;;;;;;;;;;;;;;15.17;89.34;98572.38;5034409;28;19947;-61
2021/07/06 00:39:29;;;;;;;;;;;;;;;15.20;89.29;98577.22;5034856;28;19924;-62
2021/07/06 00:41:54;;;;;;;;;;;;;;;15.13;90.20;98576.75;5033389;28;19917;-61
2021/07/06 00:44:19;;;;;;;;;;;;;;;15.13;89.44;98576.75;5034824;28;20281;-61
2021/07/06 00:46:45;;;;;;;;;;;;;;;15.08;90.55;98579.53;5034138;28;19943;-61
2021/07/06 00:49:10;;;;;;;;;;;;;;;14.99;90.04;98578.53;5033334;28;20020;-61
2021/07/06 00:51:35;;;;;;;;;;;;;;;14.91;90.41;98571.88;5034148;28;19917;-62
2021/07/06 00:54:01;;;;;;;;;;;;;;;14.79;90.71;98566.88;5033103;28;19928;-62
2021/07/06 00:56:27;;;;;;;;;;;;;;;14.81;90.97;98570.09;5033355;28;19924;-62
2021/07/06 00:58:52;;;;;;;;;;;;;;;14.74;90.93;98566.13;5034456;28;19913;-61
2021/07/06 01:01:17;;;;;;;;;;;;;;;14.66;91.44;98570.25;5033631;28;20012;-61
2021/07/06 01:03:43;;;;;;;;;;;;;;;14.64;91.42;98561.63;5034253;28;19928;-61
2021/07/06 01:06:08;;;;;;;;;;;;;;;14.74;91.33;98560.72;5032658;28;20591;-61
2021/07/06 01:08:34;;;;;;;;;;;;;;;14.84;90.90;98552.53;5034366;28;19958;-61
2021/07/06 01:11:00;;;;;;;;;;;;;;;14.58;91.47;98543.91;5032026;28;19921;-61
2021/07/06 01:13:26;;;;;;;;;;;;;;;14.70;91.21;98543.50;5033022;28;19959;-61
2021/07/06 01:15:51;;;;;;;;;;;;;;;14.64;91.56;98526.56;5015656;28;20018;-61
2021/07/06 01:18:17;;;;;;;;;;;;;;;14.63;91.68;98524.97;5034057;28;19913;-61
2021/07/06 01:20:43;;;;;;;;;;;;;;;14.70;92.20;98530.81;5033813;28;19917;-61
2021/07/06 01:23:08;;;;;;;;;;;;;;;14.53;90.97;98523.19;5034006;28;19919;-62
2021/07/06 01:25:34;;;;;;;;;;;;;;;14.28;91.58;98531.47;5033644;28;19917;-62
2021/07/06 01:28:00;;;;;;;;;;;;;;;14.22;92.65;98523.44;5032587;28;19917;-61
2021/07/06 01:30:26;;;;;;;;;;;;;;;14.02;93.81;98510.94;5033409;28;19970;-61
2021/07/06 01:32:51;;;;;;;;;;;;;;;14.00;94.07;98513.13;5033712;28;19916;-62
2021/07/06 01:35:16;;;;;;;;;;;;;;;14.02;94.50;98510.94;5033375;28;20275;-61
2021/07/06 01:37:49;;;;;;;;;;;;;;;14.15;94.58;98505.97;5034065;28;19913;-61
2021/07/06 01:40:15;;;;;;;;;;;;;;;14.15;94.24;98500.59;5033365;28;20359;-62
2021/07/06 01:42:40;;;;;;;;;;;;;;;14.13;93.83;98497.41;5033706;28;19913;-62
2021/07/06 01:45:13;;;;;;;;;;;;;;;14.16;94.26;98496.84;5032772;28;19913;-62
2021/07/06 01:47:39;;;;;;;;;;;;;;;14.16;93.80;98503.03;5033895;28;20006;-62
2021/07/06 01:50:05;;;;;;;;;;;;;;;14.14;93.32;98505.19;5033488;28;19913;-66
2021/07/06 01:52:30;;;;;;;;;;;;;;;14.17;92.51;98493.03;5033459;28;20402;-62
2021/07/06 01:54:56;;;;;;;;;;;;;;;14.11;92.73;98505.75;5033648;28;19920;-62
2021/07/06 01:57:24;;;;;;;;;;;;;;;14.05;93.09;98503.38;5031682;28;19917;-62
2021/07/06 01:59:49;;;;;;;;;;;;;;;14.15;93.73;98505.97;5033431;28;20390;-62
2021/07/06 02:02:15;;;;;;;;;;;;;;;14.24;93.06;98498.91;5032782;28;19921;-62
2021/07/06 02:04:40;;;;;;;;;;;;;;;14.31;92.51;98504.78;5033753;28;19967;-62
2021/07/06 02:07:05;;;;;;;;;;;;;;;14.34;92.11;98514.97;5031776;28;19991;-62
2021/07/06 02:09:30;;;;;;;;;;;;;;;14.15;92.46;98500.59;5034604;28;19940;-62
2021/07/06 02:11:56;;;;;;;;;;;;;;;13.97;93.55;98497.50;5037001;28;20363;-61
2021/07/06 02:14:21;;;;;;;;;;;;;;;13.89;93.92;98492.75;5037243;28;19913;-61
2021/07/06 02:16:46;;;;;;;;;;;;;;;13.95;93.25;98497.00;5036957;28;19917;-62
2021/07/06 02:19:11;;;;;;;;;;;;;;;13.97;93.50;98502.91;5037275;28;19913;-62
2021/07/06 02:21:37;;;;;;;;;;;;;;;13.97;93.60;98500.22;5036642;28;19924;-62
2021/07/06 02:24:02;;;;;;;;;;;;;;;13.97;93.82;98496.72;5037186;28;20003;-62
2021/07/06 02:26:27;;;;;;;;;;;;;;;13.94;93.61;98484.63;5036336;28;19923;-62
2021/07/06 02:28:53;;;;;;;;;;;;;;;13.82;94.12;98481.47;5037116;28;20275;-61
2021/07/06 02:31:18;;;;;;;;;;;;;;;13.91;94.44;98474.41;5036635;28;19996;-61
2021/07/06 02:33:43;;;;;;;;;;;;;;;13.98;93.88;98474.09;5037015;28;19959;-61
2021/07/06 02:36:08;;;;;;;;;;;;;;;13.99;93.70;98473.00;5036324;28;20412;-61
2021/07/06 02:38:34;;;;;;;;;;;;;;;13.97;93.36;98477.84;5037101;28;19970;-61
2021/07/06 02:41:00;;;;;;;;;;;;;;;14.03;93.92;98472.16;5036203;28;20011;-61
2021/07/06 02:43:25;;;;;;;;;;;;;;;14.10;93.50;98476.41;5036600;28;19952;-60
2021/07/06 02:45:51;;;;;;;;;;;;;;;14.14;93.09;98483.63;5036344;28;19917;-61
2021/07/06 02:48:16;;;;;;;;;;;;;;;14.14;93.01;98494.41;5036211;28;20359;-61
2021/07/06 02:50:41;;;;;;;;;;;;;;;14.10;92.86;98492.56;5036214;28;20431;-61
2021/07/06 02:53:07;;;;;;;;;;;;;;;14.01;93.15;98490.47;5035048;28;19955;-61
2021/07/06 02:55:33;;;;;;;;;;;;;;;14.14;93.81;98493.63;5036052;28;20051;-61
2021/07/06 02:57:58;;;;;;;;;;;;;;;14.15;93.80;98479.03;5034922;28;20363;-61
2021/07/06 03:00:24;;;;;;;;;;;;;;;14.12;92.44;98482.31;5035899;28;19940;-60
2021/07/06 03:02:51;;;;;;;;;;;;;;;13.95;92.64;98482.72;5035196;28;19917;-61
2021/07/06 03:05:17;;;;;;;;;;;;;;;14.08;93.72;98478.56;5033453;28;19923;-61
2021/07/06 03:07:42;;;;;;;;;;;;;;;14.10;93.30;98476.41;5034879;28;19905;-61
2021/07/06 03:10:11;;;;;;;;;;;;;;;14.13;93.37;98481.25;5034549;28;19913;-61
2021/07/06 03:12:37;;;;;;;;;;;;;;;14.14;93.10;98483.63;5034673;28;20371;-60
2021/07/06 03:15:03;;;;;;;;;;;;;;;14.16;93.60;98488.75;5034881;28;19940;-61
2021/07/06 03:17:28;;;;;;;;;;;;;;;14.29;92.97;98488.06;5034974;28;19916;-60
2021/07/06 03:19:53;;;;;;;;;;;;;;;14.37;92.72;98481.25;5034450;28;20291;-61
2021/07/06 03:22:18;;;;;;;;;;;;;;;14.56;92.84;98487.56;5034379;28;19967;-60
2021/07/06 03:24:43;;;;;;;;;;;;;;;14.68;91.97;98481.78;5034793;28;19913;-61
2021/07/06 03:27:09;;;;;;;;;;;;;;;14.67;91.55;98470.16;5034247;28;19928;-61
2021/07/06 03:29:34;;;;;;;;;;;;;;;14.62;91.80;98472.91;5034556;28;19983;-61
2021/07/06 03:31:59;;;;;;;;;;;;;;;14.65;91.81;98476.94;5032901;28;20350;-61
2021/07/06 03:34:25;;;;;;;;;;;;;;;14.65;91.67;98476.94;5034603;28;19920;-61
2021/07/06 03:36:50;;;;;;;;;;;;;;;14.70;91.41;98484.97;5034128;28;20393;-60
2021/07/06 03:39:15;;;;;;;;;;;;;;;15.18;89.83;98465.25;5033136;28;19909;-61
2021/07/06 03:41:41;;;;;;;;;;;;;;;15.69;87.16;98461.75;5033918;28;20437;-61
2021/07/06 03:44:06;;;;;;;;;;;;;;;15.87;86.25;98462.84;5034594;28;19919;-61
2021/07/06 03:46:31;;;;;;;;;;;;;;;15.88;85.80;98464.47;5033914;28;20302;-61
2021/07/06 03:48:56;;;;;;;;;;;;;;;15.77;86.58;98463.03;5034159;28;19925;-61
2021/07/06 03:51:21;;;;;;;;;;;;;;;16.24;84.51;98461.16;5033994;28;20020;-61
2021/07/06 03:53:47;;;;;;;;;;;;;;;17.44;78.35;98458.16;5034041;28;20007;-61
2021/07/06 03:56:12;;;;;;;;;;;;;;;18.63;74.24;98467.66;5032506;28;19917;-61
2021/07/06 03:58:37;;;;;;;;;;;;;;;19.16;71.41;98472.13;5034105;28;20046;-61
2021/07/06 04:01:02;;;;;;;;;;;;;;;20.00;67.15;98466.56;5033673;28;19917;-61
2021/07/06 04:03:28;;;;;;;;;;;;;;;20.20;66.05;98473.25;4995229;28;1142107;-61
2021/07/06 04:05:53;;;;;;;;;;;;;;;20.64;63.45;98465.72;5034816;28;20379;-61
2021/07/06 04:08:18;;;;;;;;;;;;;;;21.01;62.21;98468.75;5033746;28;19917;-61
2021/07/06 04:10:44;;;;;;;;;;;;;;;21.05;61.84;98475.16;5033327;28;20000;-61
2021/07/06 04:13:09;;;;;;;;;;;;;;;21.47;60.94;98469.75;5034649;28;19963;-61
2021/07/06 04:15:34;;;;;;;;;;;;;;;21.20;61.24;98469.13;5034191;28;19985;-61
2021/07/06 04:18:00;;;;;;;;;;;;;;;21.65;60.06;98473.94;5034809;28;19909;-61
2021/07/06 04:20:25;;;;;;;;;;;;;;;21.86;59.83;98481.28;5033162;28;20003;-61
2021/07/06 04:22:50;;;;;;;;;;;;;;;20.26;64.48;98477.38;5034763;28;19913;-61
2021/07/06 04:25:16;;;;;;;;;;;;;;;18.38;71.96;98476.50;5034249;28;19916;-61
2021/07/06 04:27:42;;;;;;;;;;;;;;;17.59;75.97;98472.47;5034683;28;20482;-61
2021/07/06 04:30:07;;;;;;;;;;;;;;;17.32;78.03;98481.47;5034436;28;19913;-61
2021/07/06 04:32:33;;;;;;;;;;;;;;;17.72;76.84;98479.72;5033950;28;20240;-61
2021/07/06 04:34:58;;;;;;;;;;;;;;;17.72;75.92;98470.78;5034498;28;20044;-61
2021/07/06 04:37:23;;;;;;;;;;;;;;;17.57;77.13;98475.50;5034051;28;19917;-61
2021/07/06 04:39:48;;;;;;;;;;;;;;;17.39;77.96;98474.53;5034317;28;19917;-61
2021/07/06 04:42:16;;;;;;;;;;;;;;;17.01;78.91;98472.09;5033867;28;19955;-61
2021/07/06 04:44:41;;;;;;;;;;;;;;;16.59;81.29;98474.00;5034350;28;20283;-61
2021/07/06 04:47:06;;;;;;;;;;;;;;;16.39;81.59;98474.38;5033725;28;19917;-61
2021/07/06 04:49:31;;;;;;;;;;;;;;;16.29;82.93;98477.28;5034107;28;19919;-61
2021/07/06 04:51:57;;;;;;;;;;;;;;;16.21;83.26;98480.66;5033796;28;19917;-61
2021/07/06 04:54:25;;;;;;;;;;;;;;;15.80;85.59;98489.44;5032524;28;20359;-61
2021/07/06 04:56:53;;;;;;;;;;;;;;;15.86;85.70;98491.78;5033583;28;19962;-61
2021/07/06 04:59:19;;;;;;;;;;;;;;;15.78;86.25;98489.75;5034555;28;19913;-61
2021/07/06 05:01:44;;;;;;;;;;;;;;;15.96;85.58;98496.22;5032119;28;19924;-61
2021/07/06 05:04:09;;;;;;;;;;;;;;;16.09;85.77;98508.97;5033132;28;20023;-62
2021/07/06 05:06:35;;;;;;;;;;;;;;;15.99;85.06;98509.13;5032425;28;20368;-61
2021/07/06 05:09:00;;;;;;;;;;;;;;;16.09;86.69;98514.38;5016196;28;20008;-61
2021/07/06 05:11:25;;;;;;;;;;;;;;;15.98;86.22;98512.16;5032208;28;19917;-61
2021/07/06 05:13:51;;;;;;;;;;;;;;;15.96;86.61;98520.53;5032593;28;19935;-61
2021/07/06 05:16:16;;;;;;;;;;;;;;;15.66;88.07;98519.88;5033452;28;19924;-61
2021/07/06 05:18:41;;;;;;;;;;;;;;;15.50;88.44;98521.19;5032759;28;20000;-61
2021/07/06 05:21:06;;;;;;;;;;;;;;;15.51;88.25;98522.81;5033392;28;20383;-61
2021/07/06 05:23:32;;;;;;;;;;;;;;;15.41;88.86;98522.97;5033844;28;19919;-62
2021/07/06 05:25:57;;;;;;;;;;;;;;;15.12;90.09;98529.25;5031945;28;19917;-61
2021/07/06 05:28:22;;;;;;;;;;;;;;;15.26;90.43;98535.56;5034026;28;20248;-62
2021/07/06 05:30:47;;;;;;;;;;;;;;;15.24;91.06;98543.13;5033535;28;19924;-62
2021/07/06 05:33:13;;;;;;;;;;;;;;;15.46;90.62;98544.50;5033971;28;19913;-62
2021/07/06 05:35:38;;;;;;;;;;;;;;;15.60;90.37;98545.38;5032128;28;19996;-62
2021/07/06 05:38:04;;;;;;;;;;;;;;;15.57;90.84;98548.63;5033654;28;19920;-62
2021/07/06 05:40:29;;;;;;;;;;;;;;;15.46;91.07;98555.28;5033162;28;19923;-62
2021/07/06 05:42:54;;;;;;;;;;;;;;;15.41;90.61;98568.84;5032040;28;20058;-63
2021/07/06 05:45:20;;;;;;;;;;;;;;;15.47;90.90;98584.69;5033530;28;20418;-62
2021/07/06 05:47:45;;;;;;;;;;;;;;;15.51;91.00;98574.13;5033640;28;19951;-63
2021/07/06 05:50:11;;;;;;;;;;;;;;;15.65;90.60;98563.38;5033014;28;20055;-63
2021/07/06 05:52:36;;;;;;;;;;;;;;;15.93;88.19;98553.56;5033335;28;19913;-63
2021/07/06 05:55:02;;;;;;;;;;;;;;;16.16;87.98;98544.53;5033038;28;19920;-62
2021/07/06 05:57:30;;;;;;;;;;;;;;;16.06;88.69;98549.31;5033367;28;19920;-63
2021/07/06 05:59:56;;;;;;;;;;;;;;;16.32;87.37;98533.47;5033340;28;19913;-63
2021/07/06 06:02:21;;;;;;;;;;;;;;;16.33;87.38;98535.06;5032739;28;19928;-63
2021/07/06 06:04:47;;;;;;;;;;;;;;;16.15;89.42;98542.94;5033339;28;20280;-63
2021/07/06 06:07:12;;;;;;;;;;;;;;;16.52;87.49;98560.13;5031671;28;19948;-63
2021/07/06 06:09:37;;;;;;;;;;;;;;;16.70;86.93;98565.78;5033077;28;19913;-63
2021/07/06 06:12:03;;;;;;;;;;;;;;;16.69;87.33;98559.56;5032877;28;19917;-62
2021/07/06 06:14:28;;;;;;;;;;;;;;;16.74;87.55;98561.38;5033252;28;19940;-62
2021/07/06 06:16:53;;;;;;;;;;;;;;;16.65;87.78;98560.47;5032781;28;19924;-62
2021/07/06 06:19:18;;;;;;;;;;;;;;;16.81;87.06;98556.41;5033167;28;19912;-63
2021/07/06 06:21:43;;;;;;;;;;;;;;;17.05;85.96;98561.66;5032712;28;19924;-62
2021/07/06 06:24:09;;;;;;;;;;;;;;;16.86;86.59;98564.44;5033119;28;20291;-63
2021/07/06 06:26:34;;;;;;;;;;;;;;;16.72;88.08;98569.00;5032989;28;19912;-63
2021/07/06 06:28:59;;;;;;;;;;;;;;;16.81;87.33;98572.66;5031807;28;19967;-62
2021/07/06 06:31:24;;;;;;;;;;;;;;;16.77;88.13;98577.84;5032632;28;20359;-63
2021/07/06 06:33:50;;;;;;;;;;;;;;;16.68;89.30;98573.41;5033366;28;19920;-63
2021/07/06 06:36:15;;;;;;;;;;;;;;;16.64;89.38;98577.81;5031213;28;20020;-63
2021/07/06 06:38:40;;;;;;;;;;;;;;;16.67;89.19;98577.19;5031675;28;20363;-63
2021/07/06 06:41:06;;;;;;;;;;;;;;;16.54;89.74;98576.88;5032539;28;19924;-63
2021/07/06 06:43:31;;;;;;;;;;;;;;;16.45;89.94;98575.16;5033098;28;19919;-62
2021/07/06 06:45:56;;;;;;;;;;;;;;;16.47;89.88;98581.88;5032157;28;19920;-62
2021/07/06 06:48:22;;;;;;;;;;;;;;;16.61;89.78;98593.53;5032680;28;20333;-63
2021/07/06 06:50:47;;;;;;;;;;;;;;;16.62;89.94;98607.84;5032698;28;19924;-63
2021/07/06 06:53:12;;;;;;;;;;;;;;;16.58;89.83;98607.66;5032614;28;20386;-63
2021/07/06 06:55:38;;;;;;;;;;;;;;;16.75;89.14;98596.28;5034585;28;19917;-62
2021/07/06 06:58:03;;;;;;;;;;;;;;;16.61;89.60;98598.94;5036582;28;20007;-62
2021/07/06 07:00:30;;;;;;;;;;;;;;;16.52;90.11;98611.53;5035981;28;20291;-62
2021/07/06 07:02:57;;;;;;;;;;;;;;;16.33;91.16;98617.00;5036263;28;19963;-62
2021/07/06 07:05:22;;;;;;;;;;;;;;;16.41;90.76;98618.22;5035783;28;19917;-62
2021/07/06 07:07:48;;;;;;;;;;;;;;;16.56;89.96;98636.91;5036129;28;19920;-62
2021/07/06 07:10:13;;;;;;;;;;;;;;;16.49;90.07;98633.78;5035917;28;19921;-62
2021/07/06 07:12:41;;;;;;;;;;;;;;;16.54;89.81;98633.69;5036113;28;19909;-62
2021/07/06 07:15:10;;;;;;;;;;;;;;;16.30;90.95;98622.19;5035962;28;20330;-63
2021/07/06 07:17:36;;;;;;;;;;;;;;;16.21;91.29;98629.38;5036039;28;19909;-63
2021/07/06 07:20:01;;;;;;;;;;;;;;;16.36;91.18;98626.41;5035754;28;19913;-63
2021/07/06 07:22:26;;;;;;;;;;;;;;;16.17;91.57;98621.03;5035937;28;20371;-63
2021/07/06 07:24:51;;;;;;;;;;;;;;;16.22;92.07;98620.94;5036178;28;19966;-63
2021/07/06 07:27:17;;;;;;;;;;;;;;;16.30;91.29;98612.19;5035504;28;20291;-63
2021/07/06 07:29:42;;;;;;;;;;;;;;;16.18;92.07;98604.53;5035878;28;19913;-63
2021/07/06 07:32:07;;;;;;;;;;;;;;;16.06;92.25;98604.16;5035493;28;19917;-63
2021/07/06 07:34:33;;;;;;;;;;;;;;;16.05;92.83;98594.47;5035656;28;20007;-63
2021/07/06 07:36:59;;;;;;;;;;;;;;;16.09;92.95;98589.25;5035202;28;19917;-62
2021/07/06 07:39:25;;;;;;;;;;;;;;;15.99;93.19;98586.72;5035648;28;19983;-63
2021/07/06 07:41:51;;;;;;;;;;;;;;;16.06;92.95;98596.06;5035216;28;20268;-62
2021/07/06 07:44:16;;;;;;;;;;;;;;;16.00;93.38;98591.84;5035671;28;19921;-62
2021/07/06 07:46:41;;;;;;;;;;;;;;;16.04;93.41;98573.13;5035283;28;20313;-63
2021/07/06 07:49:07;;;;;;;;;;;;;;;15.91;93.92;98556.56;5035606;28;20338;-63
2021/07/06 07:51:32;;;;;;;;;;;;;;;15.84;94.22;98536.41;5035152;28;20008;-63
2021/07/06 07:53:58;;;;;;;;;;;;;;;15.73;95.15;98512.25;5035403;28;20398;-63
2021/07/06 07:56:23;;;;;;;;;;;;;;;15.71;95.54;98497.44;5034935;28;19940;-62
2021/07/06 07:58:48;;;;;;;;;;;;;;;15.73;95.55;98498.75;5035748;28;19975;-62
2021/07/06 08:01:13;;;;;;;;;;;;;;;15.77;95.73;98498.16;5033681;28;20363;-62
2021/07/06 08:03:39;;;;;;;;;;;;;;;15.85;95.63;98494.75;5035079;28;19920;-62
2021/07/06 08:06:04;;;;;;;;;;;;;;;15.87;95.51;98452.03;5033688;28;19992;-62
2021/07/06 08:08:29;;;;;;;;;;;;;;;15.85;96.09;98384.81;5017448;28;19908;-62
2021/07/06 08:10:57;;;;;;;;;;;;;;;15.90;96.11;98392.00;5034788;28;20391;-62
2021/07/06 08:13:23;;;;;;;;;;;;;;;15.99;96.10;98422.66;5034023;28;19913;-61
2021/07/06 08:15:48;;;;;;;;;;;;;;;16.07;95.82;98421.97;5034774;28;20008;-61
2021/07/06 08:18:14;;;;;;;;;;;;;;;16.12;95.86;98416.47;5035157;28;19913;-62
2021/07/06 08:20:39;;;;;;;;;;;;;;;16.21;95.86;98434.72;5034720;28;20337;-62
2021/07/06 08:23:04;;;;;;;;;;;;;;;16.35;95.22;98432.84;5034937;28;20371;-62
2021/07/06 08:25:30;;;;;;;;;;;;;;;16.54;94.28;98433.50;5034756;28;20326;-62
2021/07/06 08:27:55;;;;;;;;;;;;;;;16.71;93.65;98427.50;5034904;28;19913;-62
2021/07/06 08:30:20;;;;;;;;;;;;;;;16.95;92.17;98411.06;5034584;28;19960;-62
2021/07/06 08:32:45;;;;;;;;;;;;;;;17.15;90.16;98409.03;5034805;28;19913;-62
2021/07/06 08:35:11;;;;;;;;;;;;;;;17.21;89.69;98416.72;5034398;28;20309;-62
2021/07/06 08:37:36;;;;;;;;;;;;;;;17.51;88.62;98457.75;5034686;28;19913;-62
2021/07/06 08:40:02;;;;;;;;;;;;;;;17.46;87.41;98464.06;5034223;28;19912;-62
2021/07/06 08:42:28;;;;;;;;;;;;;;;17.36;86.96;98450.75;5034152;28;19909;-62
2021/07/06 08:44:53;;;;;;;;;;;;;;;17.35;86.98;98446.47;5033330;28;20275;-62
2021/07/06 08:47:18;;;;;;;;;;;;;;;17.29;87.44;98453.09;5034264;28;19976;-62
2021/07/06 08:49:47;;;;;;;;;;;;;;;17.38;87.73;98467.50;5033264;28;19966;-62
2021/07/06 08:52:12;;;;;;;;;;;;;;;17.88;86.92;98486.41;5033911;28;20275;-62
2021/07/06 08:54:38;;;;;;;;;;;;;;;17.85;86.85;98500.59;5034242;28;19920;-62
2021/07/06 08:57:05;;;;;;;;;;;;;;;17.98;85.98;98501.63;5034013;28;19936;-62
2021/07/06 08:59:30;;;;;;;;;;;;;;;17.96;85.83;98503.06;5034313;28;19913;-62
2021/07/06 09:01:55;;;;;;;;;;;;;;;17.96;85.61;98508.47;5033939;28;19925;-62
2021/07/06 09:04:20;;;;;;;;;;;;;;;18.04;86.27;98505.81;5034398;28;19995;-62
2021/07/06 09:06:54;;;;;;;;;;;;;;;18.26;84.90;98515.84;5034078;28;19917;-62
2021/07/06 09:09:27;;;;;;;;;;;;;;;18.45;84.49;98529.22;5034433;28;19967;-62
2021/07/06 09:11:53;;;;;;;;;;;;;;;18.60;85.38;98533.44;5033920;28;19921;-62
2021/07/06 09:14:18;;;;;;;;;;;;;;;18.42;86.40;98545.28;5034201;28;20290;-62
2021/07/06 09:16:44;;;;;;;;;;;;;;;18.68;85.79;98543.53;5033675;28;19943;-62
2021/07/06 09:19:35;;;;;;;;;;;;;;;18.86;84.83;98535.47;5033517;28;20434;-62
2021/07/06 09:22:14;;;;;;;;;;;;;;;18.60;84.81;98538.84;5030497;28;20455;-62
2021/07/06 09:24:39;;;;;;;;;;;;;;;18.91;82.27;98538.06;5033980;28;19991;-62
2021/07/06 09:27:24;;;;;;;;;;;;;;;19.20;81.51;98551.09;5033558;28;19917;-62
2021/07/06 09:30:08;;;;;;;;;;;;;;;19.00;82.84;98547.03;5033996;28;19971;-62
2021/07/06 09:32:34;;;;;;;;;;;;;;;18.84;81.96;98564.84;5013871;28;19918;-62
2021/07/06 09:35:12;;;;;;;;;;;;;;;19.04;83.22;98548.00;5014109;28;20318;-62
2021/07/06 09:37:43;;;;;;;;;;;;;;;18.99;82.65;98561.72;5013777;28;19924;-62
2021/07/06 09:40:21;;;;;;;;;;;;;;;19.01;81.23;98555.97;5014608;28;19967;-62
2021/07/06 09:42:46;;;;;;;;;;;;;;;19.08;81.63;98562.56;5032283;28;19960;-62
2021/07/06 09:45:11;;;;;;;;;;;;;;;19.11;80.03;98571.97;5033351;28;19913;-62
2021/07/06 09:47:37;;;;;;;;;;;;;;;19.10;80.03;98581.25;5033662;28;20007;-62
2021/07/06 09:50:02;;;;;;;;;;;;;;;18.58;81.74;98579.06;5033525;28;20252;-62
2021/07/06 09:52:33;;;;;;;;;;;;;;;18.72;81.01;98579.78;5033380;28;20295;-62
2021/07/06 09:54:58;;;;;;;;;;;;;;;18.51;80.87;98600.41;5033647;28;19913;-61
2021/07/06 09:57:28;;;;;;;;;;;;;;;18.62;80.90;98601.78;5031403;28;19917;-62
2021/07/06 09:59:57;;;;;;;;;;;;;;;18.67;81.26;98601.63;5032255;28;19909;-62
2021/07/06 10:02:23;;;;;;;;;;;;;;;18.93;78.65;98593.63;5032774;28;20267;-62
2021/07/06 10:04:52;;;;;;;;;;;;;;;19.21;78.23;98598.84;5015835;28;20068;-62
2021/07/06 10:07:18;;;;;;;;;;;;;;;19.57;76.32;98592.41;5032996;28;19924;-62
2021/07/06 10:09:43;;;;;;;;;;;;;;;19.64;76.11;98606.31;5033938;28;20000;-62
2021/07/06 10:12:08;;;;;;;;;;;;;;;19.95;74.34;98608.16;5015332;28;20020;-62
2021/07/06 10:14:34;;;;;;;;;;;;;;;20.09;73.59;98624.31;5013447;28;19913;-62
2021/07/06 10:16:59;;;;;;;;;;;;;;;20.07;71.99;98607.50;5029192;28;19921;-62
2021/07/06 10:19:24;;;;;;;;;;;;;;;20.46;72.57;98614.69;5033150;28;19920;-62
2021/07/06 10:21:50;;;;;;;;;;;;;;;19.83;72.17;98611.50;5031510;28;20027;-62
2021/07/06 10:24:15;;;;;;;;;;;;;;;19.76;72.29;98622.84;5031904;28;19913;-62
2021/07/06 10:26:40;;;;;;;;;;;;;;;19.67;72.01;98618.47;5032924;28;19928;-62
2021/07/06 10:29:06;;;;;;;;;;;;;;;19.74;71.70;98635.16;5032279;28;20007;-62
2021/07/06 10:31:31;;;;;;;;;;;;;;;19.87;70.21;98642.38;5024273;28;20425;-62
2021/07/06 10:33:56;;;;;;;;;;;;;;;19.84;69.75;98651.16;4999552;28;20352;-62
2021/07/06 10:36:34;;;;;;;;;;;;;;;20.18;66.73;98636.00;5027763;28;20322;-62
2021/07/06 10:39:00;;;;;;;;;;;;;;;19.98;65.98;98646.38;5036514;28;19924;-62
2021/07/06 10:41:34;;;;;;;;;;;;;;;20.09;64.91;98651.50;5036765;28;20367;-62
2021/07/06 10:44:00;;;;;;;;;;;;;;;20.28;64.52;98662.88;5036418;28;19970;-61
2021/07/06 10:46:29;;;;;;;;;;;;;;;20.26;65.43;98651.50;5034989;28;19921;-62
2021/07/06 10:49:07;;;;;;;;;;;;;;;20.30;64.06;98647.03;5036660;28;19916;-62
2021/07/06 10:51:43;;;;;;;;;;;;;;;20.03;66.74;98646.22;5036270;28;20320;-62
2021/07/06 10:54:11;;;;;;;;;;;;;;;20.38;66.02;98646.22;5036791;28;19919;-62
2021/07/06 10:56:37;;;;;;;;;;;;;;;20.53;64.01;98627.81;5023450;28;19917;-62
2021/07/06 10:59:05;;;;;;;;;;;;;;;21.20;61.48;98646.22;5015501;28;19960;-62
2021/07/06 11:01:36;;;;;;;;;;;;;;;21.20;61.20;98627.16;5028234;28;19962;-62
2021/07/06 11:04:01;;;;;;;;;;;;;;;21.92;59.25;98622.59;5036504;28;20016;-62
2021/07/06 11:06:47;;;;;;;;;;;;;;;21.91;59.35;98609.28;5036103;28;20023;-62
2021/07/06 11:09:12;;;;;;;;;;;;;;;21.60;59.08;98626.03;5025413;28;19944;-62
2021/07/06 11:11:37;;;;;;;;;;;;;;;21.73;59.37;98628.50;5035829;28;19917;-62
2021/07/06 11:14:19;;;;;;;;;;;;;;;21.51;61.06;98628.78;5036107;28;20397;-62
2021/07/06 11:16:44;;;;;;;;;;;;;;;21.75;60.00;98628.97;5035639;28;20221;-62
2021/07/06 11:19:31;;;;;;;;;;;;;;;21.84;60.69;98625.38;5034649;28;19920;-63
2021/07/06 11:22:07;;;;;;;;;;;;;;;22.74;56.53;98618.50;5035598;28;19917;-62
2021/07/06 11:24:37;;;;;;;;;;;;;;;21.74;59.23;98626.56;5036178;28;19916;-62
2021/07/06 11:27:02;;;;;;;;;;;;;;;22.45;59.96;98625.72;5017669;28;19918;-62
2021/07/06 11:29:28;;;;;;;;;;;;;;;22.92;55.85;98630.88;5016114;28;19909;-63
2021/07/06 11:32:13;;;;;;;;;;;;;;;23.12;56.04;98636.63;5029855;28;19917;-63
2021/07/06 11:34:39;;;;;;;;;;;;;;;22.22;58.31;98630.75;5035590;28;19920;-62
2021/07/06 11:37:05;;;;;;;;;;;;;;;22.31;56.48;98633.38;5035546;28;19916;-62
2021/07/06 11:39:31;;;;;;;;;;;;;;;21.63;56.03;98615.25;5035625;28;20317;-62
2021/07/06 11:41:56;;;;;;;;;;;;;;;22.13;56.02;98621.78;5033585;28;19917;-63
2021/07/06 11:44:21;;;;;;;;;;;;;;;22.10;55.10;98633.38;5035736;28;20397;-62
2021/07/06 11:46:46;;;;;;;;;;;;;;;21.64;53.46;98632.41;5035071;28;19913;-62
2021/07/06 11:49:12;;;;;;;;;;;;;;;21.36;55.50;98638.28;5035538;28;19971;-63
2021/07/06 11:51:41;;;;;;;;;;;;;;;21.41;55.90;98631.91;5020446;28;19931;-62
2021/07/06 11:54:06;;;;;;;;;;;;;;;21.06;56.63;98621.91;5015548;28;19975;-62
2021/07/06 11:56:32;;;;;;;;;;;;;;;21.46;53.92;98637.16;5026252;28;20348;-62
2021/07/06 11:58:58;;;;;;;;;;;;;;;21.16;54.96;98655.38;5035357;28;19992;-63
2021/07/06 12:01:23;;;;;;;;;;;;;;;21.38;56.56;98673.41;5033583;28;20419;-62
2021/07/06 12:03:48;;;;;;;;;;;;;;;22.03;55.65;98684.97;5035043;28;20379;-62
2021/07/06 12:06:14;;;;;;;;;;;;;;;21.31;56.38;98701.16;5033861;28;19971;-62
2021/07/06 12:08:40;;;;;;;;;;;;;;;21.52;54.73;98710.25;5035307;28;19917;-62
2021/07/06 12:11:08;;;;;;;;;;;;;;;21.64;54.66;98709.56;5034794;28;20004;-63
2021/07/06 12:13:36;;;;;;;;;;;;;;;21.27;55.18;98702.97;5034946;28;19913;-63
2021/07/06 12:16:03;;;;;;;;;;;;;;;20.90;56.28;98703.38;5034655;28;20327;-62
2021/07/06 12:18:32;;;;;;;;;;;;;;;21.20;54.82;98700.72;5017125;28;19913;-63
2021/07/06 12:20:58;;;;;;;;;;;;;;;21.19;53.60;98715.50;5034591;28;19917;-62
2021/07/06 12:23:23;;;;;;;;;;;;;;;20.77;54.34;98709.81;5034888;28;19916;-63
2021/07/06 12:25:48;;;;;;;;;;;;;;;21.22;53.80;98714.03;5034383;28;19921;-62
2021/07/06 12:28:14;;;;;;;;;;;;;;;21.46;53.74;98719.75;5017007;28;19920;-62
2021/07/06 12:30:39;;;;;;;;;;;;;;;21.05;54.16;98732.03;5033064;28;20295;-62
2021/07/06 12:33:05;;;;;;;;;;;;;;;21.01;54.05;98720.16;5034585;28;19920;-62
2021/07/06 12:35:30;;;;;;;;;;;;;;;21.16;53.71;98727.03;5033302;28;19927;-63
2021/07/06 12:38:02;;;;;;;;;;;;;;;21.32;53.44;98730.84;5035022;28;19913;-62
2021/07/06 12:40:29;;;;;;;;;;;;;;;21.18;53.87;98730.22;5034301;28;20371;-62
2021/07/06 12:42:54;;;;;;;;;;;;;;;21.40;54.42;98742.06;5034459;28;20402;-62